»·PEaware :: AAL107 KMIA-KDFW

AAL107 :: KMIA-KDFW

FLIGHT INFORMATION

Flight Status: Arrived
Operator:
American Airlines
More flights by this operator :: More flights under this callsign
Pilot: Drew L. (13237)
Aircraft: Unknown
(B77W)
More flights by this aircraft type
Origin: KMIA Miami Intl
United States
Destination: KDFW Dallas-Ft Worth Intl
United States
More flights between these airports :: More routes between these airports
Route: WINCO2 WINCO J73 LBV SRQ Q100 REDFN Q105 HRV J58 AEX PNUTS BEREE1
File this flight plan on PilotEdge
Remarks: PBN / A1B1C1D1L1O1S2 NAV / RNVD1E2A1 DAT / V DOF / 181013 REG / N721AN EET / KZJX0042 KZHU0104 KZFW0148 SEL / TATZ RMK / NRP SIMBRIEF
Altitude:
(Current/Filed)
36,000ft
Speed:
(Current/Filed)
489kts
Departed: 13-Oct-18 01:17 PM
Arrived: 13-Oct-18 04:01 PM
Distance/Time
Traveled:
973nm/2:44
Distance/Time
To Go:
Arrived

Flight Plot

Page will automatically refresh every two minutes.

Flight plan parsing failed; only flown route is shown


Map Options




Map Legend


Flown Route
Filed Route
Departure Airport
Arrival Airport
Navaid (VOR, NDB)
Fix

Horizontal Profiles

Position Reports

Time Latitude Longitude Heading Altitude Ground
Speed
13-Oct-18 12:57 25.799095 -80.272678 171 21ft 0kts
13-Oct-18 12:58 25.799095 -80.272678 171 21ft 0kts
13-Oct-18 12:59 25.799095 -80.272678 171 21ft 0kts
13-Oct-18 13:00 25.799095 -80.272678 171 21ft 0kts
13-Oct-18 13:01 25.799095 -80.272678 171 21ft 0kts
13-Oct-18 13:02 25.799095 -80.272678 171 21ft 0kts
13-Oct-18 13:03 25.799095 -80.272678 171 21ft 0kts
13-Oct-18 13:04 25.799095 -80.272678 171 21ft 0kts
13-Oct-18 13:05 25.799095 -80.272678 171 21ft 0kts
13-Oct-18 13:06 25.799351 -80.272714 177 21ft 2kts
13-Oct-18 13:07 25.799900 -80.272584 233 21ft 2kts
13-Oct-18 13:08 25.799974 -80.272156 268 21ft 0kts
13-Oct-18 13:09 25.799974 -80.272156 268 21ft 0kts
13-Oct-18 13:10 25.799974 -80.272156 268 21ft 0kts
13-Oct-18 13:11 25.799974 -80.272156 268 21ft 0kts
13-Oct-18 13:12 25.799974 -80.272156 268 21ft 0kts
13-Oct-18 13:13 25.800269 -80.274825 323 21ft 22kts
13-Oct-18 13:14 25.800484 -80.280123 267 21ft 28kts
13-Oct-18 13:15 25.800256 -80.286112 266 21ft 13kts
13-Oct-18 13:16 25.799950 -80.293434 267 21ft 25kts
13-Oct-18 13:17 25.799758 -80.297785 267 21ft 26kts
13-Oct-18 13:18 25.800744 -80.300641 85 21ft 14kts
13-Oct-18 13:19 25.801953 -80.271422 88 237ft 194kts
13-Oct-18 13:20 25.806550 -80.196376 85 4336ft 217kts
13-Oct-18 13:21 25.835191 -80.149146 14 5761ft 265kts
13-Oct-18 13:22 25.907787 -80.175443 343 8424ft 291kts
13-Oct-18 13:23 25.982305 -80.217162 311 10793ft 326kts
13-Oct-18 13:24 26.015952 -80.320126 282 12722ft 384kts
13-Oct-18 13:25 26.042054 -80.439543 284 15688ft 407kts
13-Oct-18 13:26 26.070328 -80.564383 285 18338ft 427kts
13-Oct-18 13:27 26.129242 -80.678493 314 20711ft 439kts
13-Oct-18 13:28 26.220950 -80.771976 317 22808ft 454kts
13-Oct-18 13:29 26.315531 -80.868246 317 24671ft 468kts
13-Oct-18 13:30 26.412660 -80.966989 317 26460ft 478kts
13-Oct-18 13:31 26.528802 -81.085297 317 28328ft 490kts
13-Oct-18 13:32 26.613458 -81.171510 317 29550ft 497kts
13-Oct-18 13:33 26.715103 -81.275325 317 31434ft 493kts
13-Oct-18 13:34 26.814396 -81.380139 310 33178ft 489kts
13-Oct-18 13:35 26.886994 -81.507822 298 34762ft 485kts
13-Oct-18 13:36 26.951862 -81.639684 298 35947ft 484kts
13-Oct-18 13:37 27.017025 -81.770828 298 35964ft 480kts
13-Oct-18 13:38 27.092900 -81.923550 298 35965ft 479kts
13-Oct-18 13:39 27.146847 -82.032777 298 35962ft 478kts
13-Oct-18 13:40 27.211081 -82.163234 298 35956ft 477kts
13-Oct-18 13:41 27.275244 -82.293490 297 35952ft 476kts
13-Oct-18 13:42 27.338984 -82.423910 297 35945ft 476kts
13-Oct-18 13:43 27.401040 -82.554988 290 35937ft 474kts
13-Oct-18 13:44 27.432933 -82.698547 280 35941ft 473kts
13-Oct-18 13:45 27.458955 -82.843655 280 35943ft 473kts
13-Oct-18 13:46 27.485677 -82.988734 281 35945ft 472kts
13-Oct-18 13:47 27.512555 -83.133482 280 35946ft 472kts
13-Oct-18 13:48 27.538943 -83.277849 280 35949ft 471kts
13-Oct-18 13:49 27.565147 -83.422289 280 35957ft 469kts
13-Oct-18 13:50 27.591107 -83.566272 280 35959ft 468kts
13-Oct-18 13:51 27.616859 -83.709999 280 35959ft 466kts
13-Oct-18 13:52 27.642338 -83.853155 280 35961ft 465kts
13-Oct-18 13:53 27.667650 -83.996156 280 35960ft 465kts
13-Oct-18 13:54 27.692863 -84.139537 279 35961ft 464kts
13-Oct-18 13:55 27.717776 -84.282112 279 35961ft 464kts
13-Oct-18 13:56 27.742718 -84.425772 279 35729ft 466kts
13-Oct-18 13:57 27.767433 -84.569036 279 35492ft 466kts
13-Oct-18 13:58 27.792136 -84.713166 279 35431ft 468kts
13-Oct-18 13:59 27.816718 -84.857522 279 35355ft 468kts
13-Oct-18 14:00 27.841380 -85.001789 279 35277ft 468kts
13-Oct-18 14:01 27.865514 -85.146423 279 35198ft 468kts
13-Oct-18 14:02 27.892209 -85.290108 284 35124ft 468kts
13-Oct-18 14:03 27.935169 -85.429320 287 35045ft 468kts
13-Oct-18 14:04 27.977464 -85.568208 286 34957ft 467kts
13-Oct-18 14:05 28.019427 -85.706851 286 34988ft 465kts
13-Oct-18 14:06 28.061063 -85.845511 286 35010ft 464kts
13-Oct-18 14:07 28.102460 -85.984348 286 35043ft 464kts
13-Oct-18 14:08 28.143635 -86.123086 286 35072ft 464kts
13-Oct-18 14:09 28.184538 -86.261486 286 35113ft 464kts
13-Oct-18 14:10 28.225552 -86.400144 286 35165ft 463kts
13-Oct-18 14:11 28.266277 -86.539261 285 35482ft 465kts
13-Oct-18 14:12 28.306521 -86.677633 286 36835ft 459kts
13-Oct-18 14:13 28.346667 -86.815139 286 37510ft 458kts
13-Oct-18 14:14 28.386426 -86.952022 286 37793ft 457kts
13-Oct-18 14:15 28.426135 -87.089118 286 37988ft 457kts
13-Oct-18 14:16 28.466243 -87.226223 286 37991ft 456kts
13-Oct-18 14:17 28.505762 -87.363117 286 37987ft 455kts
13-Oct-18 14:18 28.545090 -87.500071 286 37988ft 456kts
13-Oct-18 14:19 28.584337 -87.637341 286 37988ft 456kts
13-Oct-18 14:20 28.623584 -87.774480 286 37989ft 456kts
13-Oct-18 14:21 28.662476 -87.911807 286 37992ft 455kts
13-Oct-18 14:22 28.701017 -88.048871 286 37993ft 455kts
13-Oct-18 14:23 28.739553 -88.186304 286 37993ft 455kts
13-Oct-18 14:24 28.777885 -88.323880 286 37994ft 453kts
13-Oct-18 14:25 28.816427 -88.460570 285 37995ft 453kts
13-Oct-18 14:26 28.854239 -88.597493 285 37995ft 452kts
13-Oct-18 14:27 28.900993 -88.730201 302 37994ft 457kts
13-Oct-18 14:28 28.985526 -88.839782 308 37987ft 459kts
13-Oct-18 14:29 29.069343 -88.949900 307 37987ft 458kts
13-Oct-18 14:30 29.152301 -89.060134 307 37981ft 458kts
13-Oct-18 14:31 29.235182 -89.170770 307 37977ft 457kts
13-Oct-18 14:32 29.317953 -89.281763 307 37977ft 457kts
13-Oct-18 14:33 29.400469 -89.392734 306 37980ft 457kts
13-Oct-18 14:34 29.482652 -89.503540 307 37973ft 457kts
13-Oct-18 14:35 29.564926 -89.614516 306 37974ft 456kts
13-Oct-18 14:36 29.647006 -89.726073 306 37968ft 455kts
13-Oct-18 14:37 29.728853 -89.837182 306 37970ft 455kts
13-Oct-18 14:38 29.810376 -89.948514 306 37960ft 455kts
13-Oct-18 14:39 29.860080 -90.076016 271 37959ft 442kts
13-Oct-18 14:40 29.859906 -90.217771 269 37956ft 442kts
13-Oct-18 14:41 29.863625 -90.359413 271 37953ft 443kts
13-Oct-18 14:42 29.869052 -90.501262 271 37953ft 443kts
13-Oct-18 14:43 29.874291 -90.643001 271 37953ft 443kts
13-Oct-18 14:44 29.879241 -90.784664 271 37959ft 442kts
13-Oct-18 14:45 29.884021 -90.926253 271 37951ft 442kts
13-Oct-18 14:46 29.888648 -91.067804 271 37948ft 441kts
13-Oct-18 14:47 29.893105 -91.208976 271 37948ft 440kts
13-Oct-18 14:48 29.897403 -91.349844 270 37948ft 439kts
13-Oct-18 14:49 29.901544 -91.490488 270 37948ft 438kts
13-Oct-18 14:50 29.905526 -91.630692 270 37947ft 438kts
13-Oct-18 14:51 29.909349 -91.770867 270 37957ft 437kts
13-Oct-18 14:52 29.913036 -91.910929 270 37946ft 436kts
13-Oct-18 14:53 29.916560 -92.050663 270 37946ft 436kts
13-Oct-18 14:54 29.919934 -92.190306 270 37946ft 436kts
13-Oct-18 14:55 29.923161 -92.329997 270 37914ft 436kts
13-Oct-18 14:56 29.926249 -92.470094 270 37911ft 437kts
13-Oct-18 14:57 29.929192 -92.610310 270 37907ft 437kts
13-Oct-18 14:58 29.931984 -92.750658 270 37907ft 438kts
13-Oct-18 14:59 29.934638 -92.891152 270 37905ft 438kts
13-Oct-18 15:00 29.937135 -93.031351 270 37902ft 437kts
13-Oct-18 15:01 29.939466 -93.171343 269 37902ft 436kts
13-Oct-18 15:02 29.941670 -93.311035 269 37904ft 436kts
13-Oct-18 15:03 29.943380 -93.427330 269 37907ft 436kts
13-Oct-18 15:04 29.945611 -93.590364 269 37903ft 435kts
13-Oct-18 15:05 29.947080 -93.706653 269 37900ft 434kts
13-Oct-18 15:06 29.948954 -93.868677 269 37888ft 434kts
13-Oct-18 15:07 29.950166 -93.984923 269 37877ft 434kts
13-Oct-18 15:08 29.951714 -94.147582 269 37873ft 434kts
13-Oct-18 15:09 29.952690 -94.263447 269 37879ft 434kts
13-Oct-18 15:10 29.953728 -94.402853 269 37877ft 434kts
13-Oct-18 15:11 29.954619 -94.542091 269 37871ft 434kts
13-Oct-18 15:12 29.955358 -94.681374 269 37863ft 434kts
13-Oct-18 15:13 29.955961 -94.820319 269 37857ft 434kts
13-Oct-18 15:14 29.956414 -94.959547 269 37853ft 434kts
13-Oct-18 15:15 29.956984 -95.098965 269 37830ft 433kts
13-Oct-18 15:16 29.956968 -95.237583 269 37817ft 432kts
13-Oct-18 15:17 29.961820 -95.376332 277 37813ft 434kts
13-Oct-18 15:18 29.989184 -95.512015 281 37805ft 434kts
13-Oct-18 15:19 30.016946 -95.647361 280 37802ft 433kts
13-Oct-18 15:20 30.044091 -95.782684 280 37806ft 432kts
13-Oct-18 15:21 30.071177 -95.917950 280 37810ft 432kts
13-Oct-18 15:22 30.097789 -96.052951 280 37807ft 432kts
13-Oct-18 15:23 30.128705 -96.210964 280 37797ft 432kts
13-Oct-18 15:24 30.150745 -96.324296 280 37783ft 433kts
13-Oct-18 15:25 30.177026 -96.460176 280 37780ft 433kts
13-Oct-18 15:26 30.203156 -96.596068 279 37779ft 433kts
13-Oct-18 15:27 30.229119 -96.731895 279 37776ft 432kts
13-Oct-18 15:28 30.254943 -96.867789 279 37778ft 432kts
13-Oct-18 15:29 30.280683 -97.004065 279 37778ft 433kts
13-Oct-18 15:30 30.306197 -97.139957 279 37778ft 433kts
13-Oct-18 15:31 30.331876 -97.276071 279 37777ft 432kts
13-Oct-18 15:32 30.356938 -97.412148 279 37777ft 432kts
13-Oct-18 15:33 30.391927 -97.544524 304 37786ft 447kts
13-Oct-18 15:34 30.506709 -97.611300 333 37782ft 472kts
13-Oct-18 15:35 30.625287 -97.673793 326 37796ft 467kts
13-Oct-18 15:36 30.732091 -97.736554 326 37799ft 468kts
13-Oct-18 15:37 30.848473 -97.804851 326 37725ft 466kts
13-Oct-18 15:38 30.964130 -97.873027 327 34372ft 482kts
13-Oct-18 15:39 31.084753 -97.944298 328 31521ft 480kts
13-Oct-18 15:40 31.201705 -98.013426 328 29484ft 462kts
13-Oct-18 15:41 31.314353 -98.080485 328 27347ft 446kts
13-Oct-18 15:42 31.428415 -98.130543 346 25375ft 439kts
13-Oct-18 15:43 31.549356 -98.118843 2 23506ft 434kts
13-Oct-18 15:44 31.665870 -98.089128 16 21443ft 434kts
13-Oct-18 15:45 31.771589 -98.023705 24 19427ft 421kts
13-Oct-18 15:46 31.871137 -97.956226 24 17471ft 406kts
13-Oct-18 15:47 31.967639 -97.891758 25 15616ft 392kts
13-Oct-18 15:48 32.060870 -97.828883 25 13884ft 385kts
13-Oct-18 15:49 32.166900 -97.757267 25 12627ft 360kts
13-Oct-18 15:50 32.239117 -97.709169 25 11332ft 357kts
13-Oct-18 15:51 32.326225 -97.658234 23 10282ft 337kts
13-Oct-18 15:52 32.404285 -97.601168 40 9142ft 331kts
13-Oct-18 15:53 32.467404 -97.522558 62 7815ft 325kts
13-Oct-18 15:54 32.486878 -97.421093 89 6489ft 313kts
13-Oct-18 15:55 32.495721 -97.318872 88 5244ft 308kts
13-Oct-18 15:56 32.526311 -97.232084 54 4980ft 273kts
13-Oct-18 15:57 32.571629 -97.165163 54 5018ft 260kts
13-Oct-18 15:58 32.624128 -97.106946 25 4985ft 260kts
13-Oct-18 15:59 32.690616 -97.072221 24 3949ft 263kts
13-Oct-18 16:00 32.759901 -97.054764 358 2922ft 246kts
13-Oct-18 16:01 32.823683 -97.055020 0 1695ft 211kts
13-Oct-18 16:02 32.875763 -97.054742 357 688ft 155kts
13-Oct-18 16:03 32.893594 -97.054660 6 621ft 12kts
13-Oct-18 16:04 32.894057 -97.052300 90 621ft 1kts
13-Oct-18 16:05 32.894057 -97.052296 90 621ft 0kts

Navigation Log

Ident Type
Flight plan parsing failed, navigation log unavailable